Time;durP1;ratioP1;P1;durP2;ratioP2;P2;SDS_P1;SDS_P2;PMS_P1;PMS_P2;Temp;Humidity;BMP_temperature;BMP_pressure;BME280_temperature;BME280_humidity;BME280_pressure;Samples;Min_cycle;Max_cycle;Signal;HPM_P1;HPM_P2
2023/09/27 00:00:07;;;;;;;2.65;2.30;;;;;;;;;;5145740;27;40732;-71
2023/09/27 00:02:38;;;;;;;2.60;2.40;;;;;;;;;;5127127;27;42724;-72
2023/09/27 00:05:07;;;;;;;3.30;3.00;;;;;;;;;;5129769;27;40911;-72
2023/09/27 00:07:36;;;;;;;2.55;2.22;;;;;;;;;;5123452;27;42623;-72
2023/09/27 00:10:04;;;;;;;3.70;2.67;;;;;;;;;;5129401;27;42023;-71
2023/09/27 00:12:33;;;;;;;2.50;2.00;;;;;;;;;;5128972;27;41954;-71
2023/09/27 00:15:02;;;;;;;2.17;1.98;;;;;;;;;;5128761;27;42007;-71
2023/09/27 00:17:31;;;;;;;2.30;2.10;;;;;;;;;;5128220;27;41856;-72
2023/09/27 00:19:59;;;;;;;2.42;2.20;;;;;;;;;;5129611;27;41506;-72
2023/09/27 00:22:27;;;;;;;2.63;2.42;;;;;;;;;;5129104;27;41599;-72
2023/09/27 00:24:55;;;;;;;2.42;2.22;;;;;;;;;;5128293;27;41231;-71
2023/09/27 00:27:24;;;;;;;2.00;1.83;;;;;;;;;;5129428;27;42161;-72
2023/09/27 00:29:53;;;;;;;3.10;2.42;;;;;;;;;;5126951;27;40333;-72
2023/09/27 00:32:23;;;;;;;2.95;2.38;;;;;;;;;;5110323;27;40840;-71
2023/09/27 00:34:51;;;;;;;2.40;2.20;;;;;;;;;;5129104;27;41788;-72
2023/09/27 00:37:19;;;;;;;2.65;2.40;;;;;;;;;;5128387;27;42954;-72
2023/09/27 00:39:47;;;;;;;3.28;2.60;;;;;;;;;;5128860;27;41359;-72
2023/09/27 00:42:15;;;;;;;3.50;2.42;;;;;;;;;;5129228;27;41814;-72
2023/09/27 00:44:43;;;;;;;2.33;2.10;;;;;;;;;;5126608;27;31704;-71
2023/09/27 00:47:11;;;;;;;2.25;1.85;;;;;;;;;;5129177;27;42211;-72
2023/09/27 00:49:41;;;;;;;2.30;2.10;;;;;;;;;;5128171;27;43115;-71
2023/09/27 00:52:09;;;;;;;2.75;2.22;;;;;;;;;;5128145;27;41931;-72
2023/09/27 00:54:37;;;;;;;2.25;1.73;;;;;;;;;;5128457;27;41846;-71
2023/09/27 00:57:05;;;;;;;2.30;2.10;;;;;;;;;;5129060;27;42093;-71
2023/09/27 00:59:33;;;;;;;2.88;2.47;;;;;;;;;;5127209;27;42557;-72
2023/09/27 01:02:01;;;;;;;3.17;2.63;;;;;;;;;;5129047;27;41723;-72
2023/09/27 01:04:29;;;;;;;2.53;2.03;;;;;;;;;;5128824;27;43321;-71
2023/09/27 01:06:58;;;;;;;2.88;2.20;;;;;;;;;;5128467;27;41898;-72
2023/09/27 01:09:26;;;;;;;2.75;2.28;;;;;;;;;;5127979;27;42143;-72
2023/09/27 01:11:54;;;;;;;2.60;2.13;;;;;;;;;;5128133;27;41711;-72
2023/09/27 01:14:22;;;;;;;3.15;2.70;;;;;;;;;;5126357;27;40158;-72
2023/09/27 01:16:51;;;;;;;3.67;2.40;;;;;;;;;;5128895;27;44024;-69
2023/09/27 01:19:19;;;;;;;2.38;2.17;;;;;;;;;;5127684;27;41029;-69
2023/09/27 01:21:47;;;;;;;2.92;2.03;;;;;;;;;;5128344;27;41831;-69
2023/09/27 01:24:16;;;;;;;2.78;2.35;;;;;;;;;;5119331;27;42250;-69
2023/09/27 01:26:44;;;;;;;2.45;2.20;;;;;;;;;;5126692;27;41727;-69
2023/09/27 01:29:12;;;;;;;2.63;2.42;;;;;;;;;;5126671;27;41164;-69
2023/09/27 01:31:40;;;;;;;2.35;1.83;;;;;;;;;;5127929;27;42276;-69
2023/09/27 01:34:08;;;;;;;2.22;2.00;;;;;;;;;;5109091;27;39884;-69
2023/09/27 01:36:36;;;;;;;3.25;2.85;;;;;;;;;;5109336;27;41295;-69
2023/09/27 01:39:07;;;;;;;2.38;2.15;;;;;;;;;;5126689;27;40716;-69
2023/09/27 01:41:36;;;;;;;2.55;2.35;;;;;;;;;;5124273;27;42911;-69
2023/09/27 01:44:04;;;;;;;2.17;1.98;;;;;;;;;;5128248;27;42099;-69
2023/09/27 01:46:32;;;;;;;2.22;2.03;;;;;;;;;;5108925;27;41613;-69
2023/09/27 01:49:00;;;;;;;2.83;2.53;;;;;;;;;;5128178;27;41877;-69
2023/09/27 01:51:29;;;;;;;2.97;2.10;;;;;;;;;;5126662;27;41414;-69
2023/09/27 01:53:57;;;;;;;2.17;1.98;;;;;;;;;;5128074;27;41345;-69
2023/09/27 01:56:25;;;;;;;2.55;2.15;;;;;;;;;;5108637;27;42127;-69
2023/09/27 01:58:55;;;;;;;2.60;2.40;;;;;;;;;;5109383;27;41469;-69
2023/09/27 02:01:23;;;;;;;2.92;2.40;;;;;;;;;;5107887;27;40366;-69
2023/09/27 02:03:51;;;;;;;3.35;2.05;;;;;;;;;;5126022;27;41729;-68
2023/09/27 02:06:19;;;;;;;3.00;2.70;;;;;;;;;;5127178;27;42368;-69
2023/09/27 02:08:47;;;;;;;2.50;2.30;;;;;;;;;;5127407;27;41814;-69
2023/09/27 02:11:16;;;;;;;2.67;2.47;;;;;;;;;;5125095;27;42103;-69
2023/09/27 02:13:44;;;;;;;2.60;2.40;;;;;;;;;;5110958;27;41044;-69
2023/09/27 02:16:14;;;;;;;2.47;2.25;;;;;;;;;;5126788;27;42465;-68
2023/09/27 02:18:42;;;;;;;2.50;2.05;;;;;;;;;;5127342;27;41372;-69
2023/09/27 02:21:11;;;;;;;2.83;2.53;;;;;;;;;;5109089;27;42109;-69
2023/09/27 02:23:39;;;;;;;3.25;2.95;;;;;;;;;;5126264;27;42734;-69
2023/09/27 02:26:07;;;;;;;3.10;2.80;;;;;;;;;;5128169;27;41619;-69
2023/09/27 02:28:35;;;;;;;5.13;2.47;;;;;;;;;;5108608;27;40779;-69
2023/09/27 02:31:08;;;;;;;3.20;2.90;;;;;;;;;;5126927;27;43050;-69
2023/09/27 02:33:38;;;;;;;2.17;1.98;;;;;;;;;;5124407;27;42309;-69
2023/09/27 02:36:07;;;;;;;3.00;2.70;;;;;;;;;;5124933;27;40534;-69
2023/09/27 02:38:36;;;;;;;3.72;3.10;;;;;;;;;;5110626;27;40954;-69
2023/09/27 02:41:04;;;;;;;2.65;2.45;;;;;;;;;;5130994;27;42607;-69
2023/09/27 02:43:32;;;;;;;3.40;2.92;;;;;;;;;;5124153;27;41606;-69
2023/09/27 02:46:00;;;;;;;2.60;2.40;;;;;;;;;;5108328;27;39860;-69
2023/09/27 02:48:29;;;;;;;2.60;2.22;;;;;;;;;;5126826;27;42918;-69
2023/09/27 02:50:59;;;;;;;3.22;2.92;;;;;;;;;;5129711;27;42704;-68
2023/09/27 02:53:27;;;;;;;2.90;2.63;;;;;;;;;;5130109;27;41628;-69
2023/09/27 02:55:55;;;;;;;2.97;2.60;;;;;;;;;;5130473;27;41622;-69
2023/09/27 02:58:23;;;;;;;3.80;3.40;;;;;;;;;;5110973;27;39709;-69
2023/09/27 03:00:52;;;;;;;3.17;2.88;;;;;;;;;;5106791;27;41655;-69
2023/09/27 03:03:20;;;;;;;2.95;2.65;;;;;;;;;;5130718;27;42359;-68
2023/09/27 03:05:49;;;;;;;2.95;2.65;;;;;;;;;;5128028;27;41210;-69
2023/09/27 03:08:19;;;;;;;3.35;2.60;;;;;;;;;;5130389;27;42445;-69
2023/09/27 03:10:48;;;;;;;2.45;2.03;;;;;;;;;;5109762;27;41033;-68
2023/09/27 03:13:16;;;;;;;4.95;3.63;;;;;;;;;;5129480;27;41160;-69
2023/09/27 03:15:44;;;;;;;3.30;2.65;;;;;;;;;;5111655;27;40606;-69
2023/09/27 03:18:13;;;;;;;2.92;2.72;;;;;;;;;;5110783;27;39973;-69
2023/09/27 03:20:41;;;;;;;3.83;3.42;;;;;;;;;;5129540;27;41621;-69
2023/09/27 03:23:09;;;;;;;3.28;2.97;;;;;;;;;;5111549;27;40749;-69
2023/09/27 03:25:39;;;;;;;4.28;3.53;;;;;;;;;;5110448;27;40540;-68
2023/09/27 03:28:07;;;;;;;3.28;2.97;;;;;;;;;;5111829;27;39933;-68
2023/09/27 03:30:35;;;;;;;3.15;2.85;;;;;;;;;;5129609;27;43059;-68
2023/09/27 03:33:03;;;;;;;3.90;2.95;;;;;;;;;;5111055;27;39821;-69
2023/09/27 03:35:31;;;;;;;3.38;2.90;;;;;;;;;;5129868;27;41594;-68
2023/09/27 03:37:59;;;;;;;3.70;2.83;;;;;;;;;;5111889;27;41817;-68
2023/09/27 03:40:27;;;;;;;3.10;2.80;;;;;;;;;;5110245;27;40552;-69
2023/09/27 03:42:57;;;;;;;2.88;2.58;;;;;;;;;;5111377;27;40535;-69
2023/09/27 03:45:25;;;;;;;3.28;2.85;;;;;;;;;;5130068;27;42449;-69
2023/09/27 03:47:53;;;;;;;4.03;3.45;;;;;;;;;;5110522;27;41277;-69
2023/09/27 03:50:22;;;;;;;4.20;3.72;;;;;;;;;;5111204;27;40562;-68
2023/09/27 03:52:50;;;;;;;3.25;2.83;;;;;;;;;;5129415;27;42404;-69
2023/09/27 03:55:18;;;;;;;3.58;3.28;;;;;;;;;;5129092;27;41735;-69
2023/09/27 03:57:46;;;;;;;2.85;2.50;;;;;;;;;;5127676;27;41157;-68
2023/09/27 04:00:16;;;;;;;3.63;2.85;;;;;;;;;;5111887;27;39950;-68
2023/09/27 04:02:47;;;;;;;3.63;3.22;;;;;;;;;;5109982;27;41657;-68
2023/09/27 04:05:18;;;;;;;3.80;3.10;;;;;;;;;;5110668;27;41261;-69
2023/09/27 04:07:46;;;;;;;3.47;2.50;;;;;;;;;;5109944;27;41631;-69
2023/09/27 04:10:15;;;;;;;2.55;2.20;;;;;;;;;;5129650;27;41795;-69
2023/09/27 04:12:44;;;;;;;3.03;2.53;;;;;;;;;;5129417;27;41345;-68
2023/09/27 04:15:12;;;;;;;3.05;2.75;;;;;;;;;;5128409;27;42690;-69
2023/09/27 04:17:41;;;;;;;4.70;3.63;;;;;;;;;;5128995;27;43002;-68
2023/09/27 04:20:13;;;;;;;4.07;3.67;;;;;;;;;;5129479;27;42203;-69
2023/09/27 04:22:44;;;;;;;3.10;2.70;;;;;;;;;;5125781;27;41790;-69
2023/09/27 04:25:13;;;;;;;3.42;2.90;;;;;;;;;;5129492;27;41685;-69
2023/09/27 04:27:41;;;;;;;3.05;2.75;;;;;;;;;;5128432;27;41842;-69
2023/09/27 04:30:11;;;;;;;2.55;2.35;;;;;;;;;;5128583;27;41963;-68
2023/09/27 04:32:42;;;;;;;4.88;3.42;;;;;;;;;;5128742;27;42110;-68
2023/09/27 04:35:10;;;;;;;3.58;3.10;;;;;;;;;;5129338;27;42139;-68
2023/09/27 04:37:38;;;;;;;3.90;3.50;;;;;;;;;;5127323;27;42779;-68
2023/09/27 04:40:09;;;;;;;4.22;3.83;;;;;;;;;;5110813;27;40449;-68
2023/09/27 04:42:37;;;;;;;5.00;3.72;;;;;;;;;;5128564;27;41888;-68
2023/09/27 04:45:06;;;;;;;4.55;3.35;;;;;;;;;;5129155;27;44126;-68
2023/09/27 04:47:34;;;;;;;3.30;3.00;;;;;;;;;;5109327;27;39701;-68
2023/09/27 04:50:06;;;;;;;4.47;2.92;;;;;;;;;;5128312;27;42035;-69
2023/09/27 04:52:34;;;;;;;3.78;3.47;;;;;;;;;;5127587;27;41196;-68
2023/09/27 04:55:02;;;;;;;3.47;2.85;;;;;;;;;;5129410;27;41385;-69
2023/09/27 04:57:30;;;;;;;3.53;2.90;;;;;;;;;;5127731;27;42119;-68
2023/09/27 04:59:58;;;;;;;3.42;3.00;;;;;;;;;;5128771;27;42017;-69
2023/09/27 05:02:27;;;;;;;3.25;2.95;;;;;;;;;;5129235;27;42938;-68
2023/09/27 05:04:55;;;;;;;3.88;3.58;;;;;;;;;;5127617;27;42917;-69
2023/09/27 05:07:24;;;;;;;2.83;2.58;;;;;;;;;;5128627;27;42705;-69
2023/09/27 05:09:53;;;;;;;3.42;3.05;;;;;;;;;;5128791;27;41730;-68
2023/09/27 05:12:21;;;;;;;4.78;3.88;;;;;;;;;;5127446;27;41418;-68
2023/09/27 05:14:49;;;;;;;5.25;4.53;;;;;;;;;;5128751;27;41666;-69
2023/09/27 05:17:17;;;;;;;3.00;2.70;;;;;;;;;;5128332;27;41052;-68
2023/09/27 05:19:45;;;;;;;4.32;3.92;;;;;;;;;;5127842;27;41134;-68
2023/09/27 05:22:14;;;;;;;3.60;3.30;;;;;;;;;;5128178;27;42230;-68
2023/09/27 05:24:43;;;;;;;3.30;3.00;;;;;;;;;;5127940;27;43231;-68
2023/09/27 05:27:11;;;;;;;3.95;3.20;;;;;;;;;;5128065;27;41884;-69
2023/09/27 05:29:39;;;;;;;3.03;2.72;;;;;;;;;;5128248;27;42767;-68
2023/09/27 05:32:07;;;;;;;2.88;2.67;;;;;;;;;;5127841;27;42220;-68
2023/09/27 05:34:35;;;;;;;3.35;2.75;;;;;;;;;;5128199;27;40147;-68
2023/09/27 05:37:03;;;;;;;3.80;3.40;;;;;;;;;;5128562;27;41703;-69
2023/09/27 05:39:31;;;;;;;2.90;2.55;;;;;;;;;;5127287;27;41306;-68
2023/09/27 05:42:01;;;;;;;3.10;2.53;;;;;;;;;;5110006;27;40108;-68
2023/09/27 05:44:28;;;;;;;3.30;3.00;;;;;;;;;;5127544;27;41666;-68
2023/09/27 05:46:56;;;;;;;3.10;2.80;;;;;;;;;;5109132;27;40459;-69
2023/09/27 05:49:25;;;;;;;4.00;3.60;;;;;;;;;;5128206;27;41256;-68
2023/09/27 05:51:53;;;;;;;4.28;3.35;;;;;;;;;;5128421;27;41167;-68
2023/09/27 05:54:21;;;;;;;3.65;2.70;;;;;;;;;;5126474;27;41455;-68
2023/09/27 05:56:51;;;;;;;3.03;2.50;;;;;;;;;;5127626;27;42067;-68
2023/09/27 05:59:24;;;;;;;2.85;2.60;;;;;;;;;;5127946;27;41810;-68
2023/09/27 06:01:52;;;;;;;2.65;2.38;;;;;;;;;;5108937;27;41849;-68
2023/09/27 06:04:22;;;;;;;3.83;3.50;;;;;;;;;;5124516;27;42120;-68
2023/09/27 06:06:51;;;;;;;2.95;2.65;;;;;;;;;;5128121;27;41809;-68
2023/09/27 06:09:18;;;;;;;2.83;2.58;;;;;;;;;;5126855;27;41679;-68
2023/09/27 06:11:46;;;;;;;4.35;3.42;;;;;;;;;;5109116;27;40919;-68
2023/09/27 06:14:15;;;;;;;4.00;3.60;;;;;;;;;;5130640;27;41375;-68
2023/09/27 06:16:45;;;;;;;3.00;2.78;;;;;;;;;;5131300;27;41588;-69
2023/09/27 06:19:13;;;;;;;3.25;2.95;;;;;;;;;;5131202;27;41941;-69
2023/09/27 06:21:42;;;;;;;3.63;3.30;;;;;;;;;;5130029;27;43248;-69
2023/09/27 06:24:10;;;;;;;3.95;3.40;;;;;;;;;;5121741;27;42137;-69
2023/09/27 06:26:39;;;;;;;3.38;3.03;;;;;;;;;;5119239;27;41172;-69
2023/09/27 06:29:09;;;;;;;4.22;3.83;;;;;;;;;;5126738;27;43006;-69
2023/09/27 06:31:38;;;;;;;3.63;3.33;;;;;;;;;;5118912;27;43313;-68
2023/09/27 06:34:07;;;;;;;3.70;3.40;;;;;;;;;;5118873;27;41417;-68
2023/09/27 06:36:35;;;;;;;2.92;2.63;;;;;;;;;;5129335;27;43142;-69
2023/09/27 06:39:07;;;;;;;3.15;2.85;;;;;;;;;;5110128;27;42227;-69
2023/09/27 06:41:35;;;;;;;3.35;3.05;;;;;;;;;;5120547;27;42308;-69
2023/09/27 06:44:08;;;;;;;3.90;3.40;;;;;;;;;;5104537;27;40161;-69
2023/09/27 06:46:36;;;;;;;3.45;3.15;;;;;;;;;;5116600;27;40921;-68
2023/09/27 06:49:17;;;;;;;3.35;2.97;;;;;;;;;;5115963;27;41703;-68
2023/09/27 06:51:45;;;;;;;3.10;2.78;;;;;;;;;;5118473;27;42234;-68
2023/09/27 06:54:13;;;;;;;3.28;2.67;;;;;;;;;;5126406;27;41096;-69
2023/09/27 06:56:42;;;;;;;2.97;2.67;;;;;;;;;;5129779;27;42448;-69
2023/09/27 06:59:10;;;;;;;2.78;2.20;;;;;;;;;;5130211;27;41514;-68
2023/09/27 07:01:41;;;;;;;2.33;2.05;;;;;;;;;;5122791;27;41963;-68
2023/09/27 07:04:09;;;;;;;2.80;2.60;;;;;;;;;;5120370;27;41433;-69
2023/09/27 07:06:38;;;;;;;6.03;4.07;;;;;;;;;;5124134;27;40675;-69
2023/09/27 07:09:13;;;;;;;4.95;3.53;;;;;;;;;;5129524;27;41869;-69
2023/09/27 07:11:43;;;;;;;3.15;2.85;;;;;;;;;;5125784;27;42937;-69
2023/09/27 07:14:12;;;;;;;6.38;3.00;;;;;;;;;;5129882;27;40727;-69
2023/09/27 07:16:41;;;;;;;5.15;4.00;;;;;;;;;;5129969;27;41127;-69
2023/09/27 07:19:26;;;;;;;5.38;4.70;;;;;;;;;;5127104;27;42126;-69
2023/09/27 07:21:55;;;;;;;7.55;3.45;;;;;;;;;;5130394;27;41576;-69
2023/09/27 07:24:23;;;;;;;4.93;4.47;;;;;;;;;;5128947;27;41952;-69
2023/09/27 07:26:52;;;;;;;4.72;3.90;;;;;;;;;;5129570;27;42032;-69
2023/09/27 07:29:21;;;;;;;3.90;3.50;;;;;;;;;;5129466;27;41666;-69
2023/09/27 07:31:49;;;;;;;5.28;3.72;;;;;;;;;;5129667;27;42027;-68
2023/09/27 07:34:17;;;;;;;7.18;4.10;;;;;;;;;;5129313;27;41940;-68
2023/09/27 07:36:45;;;;;;;5.32;3.45;;;;;;;;;;5121065;27;41565;-69
2023/09/27 07:39:15;;;;;;;5.00;3.60;;;;;;;;;;5129431;27;42066;-69
2023/09/27 07:41:44;;;;;;;6.45;3.33;;;;;;;;;;5126013;27;41788;-69
2023/09/27 07:44:12;;;;;;;7.78;3.53;;;;;;;;;;5120947;27;42420;-69
2023/09/27 07:46:40;;;;;;;5.75;3.42;;;;;;;;;;5128649;27;42312;-69
2023/09/27 07:49:09;;;;;;;4.85;3.20;;;;;;;;;;5129847;27;42267;-69
2023/09/27 07:51:37;;;;;;;7.10;5.13;;;;;;;;;;5128376;27;42293;-69
2023/09/27 07:54:08;;;;;;;6.97;4.45;;;;;;;;;;5127814;27;41147;-69
2023/09/27 07:56:39;;;;;;;12.18;6.85;;;;;;;;;;5126125;27;41145;-69
2023/09/27 07:59:08;;;;;;;6.95;5.80;;;;;;;;;;5128799;27;42190;-69
2023/09/27 08:01:37;;;;;;;6.55;4.65;;;;;;;;;;5126400;27;41571;-69
2023/09/27 08:04:08;;;;;;;6.35;4.55;;;;;;;;;;5129327;27;42201;-69
2023/09/27 08:06:39;;;;;;;3.45;2.97;;;;;;;;;;5125738;27;41914;-69
2023/09/27 08:09:07;;;;;;;5.15;3.20;;;;;;;;;;5129463;27;42668;-69
2023/09/27 08:11:48;;;;;;;4.22;3.20;;;;;;;;;;5125987;27;41765;-69
2023/09/27 08:14:18;;;;;;;10.18;4.70;;;;;;;;;;5117837;27;41452;-69
2023/09/27 08:16:46;;;;;;;7.57;3.85;;;;;;;;;;5129169;27;41973;-69
2023/09/27 08:19:15;;;;;;;10.25;3.50;;;;;;;;;;5127726;27;42106;-68
2023/09/27 08:21:43;;;;;;;8.25;3.75;;;;;;;;;;5128400;27;41217;-68
2023/09/27 08:24:10;;;;;;;11.02;4.20;;;;;;;;;;5129411;27;41865;-68
2023/09/27 08:26:38;;;;;;;8.45;4.07;;;;;;;;;;5128974;27;42489;-68
2023/09/27 08:29:08;;;;;;;4.72;3.72;;;;;;;;;;5128258;27;42708;-69
2023/09/27 08:31:37;;;;;;;6.85;3.67;;;;;;;;;;5120047;27;42917;-68
2023/09/27 08:34:06;;;;;;;9.18;3.70;;;;;;;;;;5128238;27;41269;-68
2023/09/27 08:36:34;;;;;;;6.85;3.55;;;;;;;;;;5115460;27;41163;-69
2023/09/27 08:39:02;;;;;;;6.65;3.90;;;;;;;;;;5124938;27;43058;-68
2023/09/27 08:41:30;;;;;;;9.48;4.03;;;;;;;;;;5127123;27;42305;-69
2023/09/27 08:43:58;;;;;;;9.40;4.03;;;;;;;;;;5127497;27;41568;-69
2023/09/27 08:46:27;;;;;;;8.90;3.70;;;;;;;;;;5128118;27;41772;-68
2023/09/27 08:48:57;;;;;;;8.40;3.83;;;;;;;;;;5127978;27;41699;-67
2023/09/27 08:51:27;;;;;;;7.68;3.70;;;;;;;;;;5122606;27;42409;-68
2023/09/27 08:53:55;;;;;;;5.25;3.78;;;;;;;;;;5125606;27;40784;-67
2023/09/27 08:56:23;;;;;;;6.68;4.93;;;;;;;;;;5121017;27;42495;-67
2023/09/27 08:58:51;;;;;;;8.95;5.40;;;;;;;;;;5126936;27;43131;-67
2023/09/27 09:01:20;;;;;;;11.55;8.07;;;;;;;;;;5125568;27;41867;-67
2023/09/27 09:03:49;;;;;;;7.32;4.47;;;;;;;;;;5125961;27;42059;-68
2023/09/27 09:06:18;;;;;;;10.55;5.57;;;;;;;;;;5125543;27;43317;-67
2023/09/27 09:08:46;;;;;;;9.40;8.43;;;;;;;;;;5121090;27;41413;-67
2023/09/27 09:11:16;;;;;;;13.38;9.73;;;;;;;;;;5126252;27;42495;-67
2023/09/27 09:13:58;;;;;;;12.43;7.35;;;;;;;;;;5110287;27;41382;-67
2023/09/27 09:16:27;;;;;;;8.40;6.25;;;;;;;;;;5123460;27;43203;-67
2023/09/27 09:18:57;;;;;;;9.10;7.95;;;;;;;;;;5125936;27;42984;-67
2023/09/27 09:21:26;;;;;;;16.02;10.18;;;;;;;;;;5114921;27;41264;-68
2023/09/27 09:23:53;;;;;;;14.63;11.15;;;;;;;;;;5121569;27;42049;-68
2023/09/27 09:26:26;;;;;;;12.93;11.73;;;;;;;;;;5125476;27;41609;-67
2023/09/27 09:28:56;;;;;;;18.33;12.77;;;;;;;;;;5115017;27;41337;-67
2023/09/27 09:31:25;;;;;;;15.25;12.07;;;;;;;;;;5118504;27;42918;-67
2023/09/27 09:34:04;;;;;;;16.95;12.68;;;;;;;;;;5124864;27;42498;-68
2023/09/27 09:36:32;;;;;;;13.10;11.38;;;;;;;;;;5119778;27;41908;-68
2023/09/27 09:39:04;;;;;;;18.08;13.30;;;;;;;;;;5122698;27;42064;-69
2023/09/27 09:41:43;;;;;;;13.98;12.48;;;;;;;;;;5123613;27;41968;-68
2023/09/27 09:44:19;;;;;;;15.32;13.68;;;;;;;;;;5105652;27;40480;-68
2023/09/27 09:46:47;;;;;;;15.35;12.63;;;;;;;;;;5122385;27;42002;-68
2023/09/27 09:49:16;;;;;;;18.73;13.45;;;;;;;;;;5129438;27;40814;-68
2023/09/27 09:51:46;;;;;;;19.33;14.80;;;;;;;;;;5121829;27;41998;-68
2023/09/27 09:54:16;;;;;;;17.42;13.25;;;;;;;;;;5124775;27;41168;-68
2023/09/27 09:56:44;;;;;;;23.02;12.77;;;;;;;;;;5128066;27;42142;-68
2023/09/27 09:59:28;;;;;;;16.58;13.43;;;;;;;;;;5124507;27;42452;-70
2023/09/27 10:01:56;;;;;;;18.83;12.85;;;;;;;;;;5127804;27;41824;-68
2023/09/27 10:04:26;;;;;;;16.02;11.90;;;;;;;;;;5116364;27;41242;-68
2023/09/27 10:06:54;;;;;;;15.68;10.85;;;;;;;;;;5124476;27;43148;-69
2023/09/27 10:09:28;;;;;;;13.40;9.35;;;;;;;;;;5122247;27;42668;-69
2023/09/27 10:11:56;;;;;;;14.40;9.13;;;;;;;;;;5125990;27;42241;-68
2023/09/27 10:14:24;;;;;;;13.60;8.93;;;;;;;;;;5126024;27;42326;-68
2023/09/27 10:16:52;;;;;;;12.95;9.80;;;;;;;;;;5128092;27;41892;-68
2023/09/27 10:19:28;;;;;;;11.77;10.57;;;;;;;;;;5120028;27;41617;-69
2023/09/27 10:22:05;;;;;;;12.10;10.85;;;;;;;;;;5108293;27;40220;-70
2023/09/27 10:24:34;;;;;;;16.75;8.65;;;;;;;;;;5125768;27;42080;-71
2023/09/27 10:27:03;;;;;;;16.33;10.35;;;;;;;;;;5127614;27;41121;-71
2023/09/27 10:29:31;;;;;;;20.02;12.27;;;;;;;;;;5122017;27;41632;-68
2023/09/27 10:32:15;;;;;;;15.13;9.82;;;;;;;;;;5120993;27;41445;-68
2023/09/27 10:34:45;;;;;;;12.48;10.98;;;;;;;;;;5124785;27;42869;-68
2023/09/27 10:37:13;;;;;;;16.23;10.93;;;;;;;;;;5119704;27;41934;-68
2023/09/27 10:40:05;;;;;;;12.70;9.68;;;;;;;;;;5104063;27;40974;-68
2023/09/27 10:42:40;;;;;;;11.88;9.75;;;;;;;;;;5119647;27;41630;-68
2023/09/27 10:45:09;;;;;;;10.63;7.95;;;;;;;;;;5127199;27;42733;-68
2023/09/27 10:47:37;;;;;;;17.45;9.88;;;;;;;;;;5125192;27;42513;-68
2023/09/27 10:50:08;;;;;;;9.90;8.90;;;;;;;;;;5126780;27;42841;-68
2023/09/27 10:52:37;;;;;;;10.30;8.65;;;;;;;;;;5126729;27;41218;-68
2023/09/27 10:55:08;;;;;;;9.98;8.13;;;;;;;;;;5107791;27;41615;-68
2023/09/27 10:57:36;;;;;;;9.70;7.57;;;;;;;;;;5123390;27;41221;-68
2023/09/27 11:00:09;;;;;;;10.05;8.98;;;;;;;;;;5126248;27;42849;-68
2023/09/27 11:02:37;;;;;;;13.52;9.70;;;;;;;;;;5121022;27;40987;-68
2023/09/27 11:05:07;;;;;;;13.25;9.80;;;;;;;;;;5123263;27;42276;-72
2023/09/27 11:07:45;;;;;;;14.73;9.93;;;;;;;;;;5119990;27;42589;-72
2023/09/27 11:10:30;;;;;;;14.70;8.35;;;;;;;;;;5122747;27;41728;-68
2023/09/27 11:13:06;;;;;;;12.38;8.55;;;;;;;;;;5121376;27;40340;-68
2023/09/27 11:15:34;;;;;;;10.40;9.30;;;;;;;;;;5121663;27;42249;-69
2023/09/27 11:18:02;;;;;;;10.88;8.57;;;;;;;;;;5126050;27;41432;-68
2023/09/27 11:20:33;;;;;;;11.00;8.60;;;;;;;;;;5119852;27;42497;-69
2023/09/27 11:23:01;;;;;;;10.45;7.82;;;;;;;;;;5126007;27;33476;-69
2023/09/27 11:25:30;;;;;;;9.70;7.10;;;;;;;;;;5102158;27;42854;-68
2023/09/27 11:27:57;;;;;;;11.75;7.00;;;;;;;;;;5102678;28;43168;-69
2023/09/27 11:30:26;;;;;;;13.23;7.13;;;;;;;;;;5100877;28;41712;-69
2023/09/27 11:32:55;;;;;;;9.85;7.07;;;;;;;;;;5107310;28;42458;-68
2023/09/27 11:35:24;;;;;;;10.25;7.15;;;;;;;;;;5104920;28;41646;-70
2023/09/27 11:38:07;;;;;;;11.27;6.40;;;;;;;;;;5100703;28;41708;-68
2023/09/27 11:40:36;;;;;;;7.88;7.03;;;;;;;;;;5101161;27;41760;-68
2023/09/27 11:43:04;;;;;;;8.93;6.75;;;;;;;;;;5106460;28;42253;-69
2023/09/27 11:45:42;;;;;;;9.95;6.53;;;;;;;;;;5105012;28;42685;-68
2023/09/27 11:48:10;;;;;;;10.95;7.30;;;;;;;;;;5102385;28;43389;-68
2023/09/27 11:50:38;;;;;;;10.02;7.00;;;;;;;;;;5102850;28;41313;-68
2023/09/27 11:53:07;;;;;;;8.88;5.80;;;;;;;;;;5106130;28;41672;-68
2023/09/27 11:55:36;;;;;;;11.73;7.75;;;;;;;;;;5103922;28;43229;-69
2023/09/27 11:58:04;;;;;;;11.65;7.82;;;;;;;;;;5104222;27;41606;-69
2023/09/27 12:00:32;;;;;;;10.20;7.57;;;;;;;;;;5104505;28;42832;-70
2023/09/27 12:03:00;;;;;;;16.92;8.23;;;;;;;;;;5102535;28;42229;-69
2023/09/27 12:05:28;;;;;;;13.40;9.13;;;;;;;;;;5104116;28;41124;-69
2023/09/27 12:07:57;;;;;;;11.80;8.50;;;;;;;;;;5103073;28;42292;-69
2023/09/27 12:10:26;;;;;;;9.68;7.20;;;;;;;;;;5104392;27;42204;-70
2023/09/27 12:12:55;;;;;;;8.50;7.32;;;;;;;;;;5104840;28;42170;-70
2023/09/27 12:15:23;;;;;;;10.98;6.45;;;;;;;;;;5105449;28;42647;-70
2023/09/27 12:17:52;;;;;;;8.80;6.45;;;;;;;;;;5105319;27;41587;-69
2023/09/27 12:20:20;;;;;;;5.95;5.32;;;;;;;;;;5105397;28;41116;-70
2023/09/27 12:23:06;;;;;;;6.05;5.10;;;;;;;;;;5102418;27;42868;-70
2023/09/27 12:25:35;;;;;;;9.70;5.68;;;;;;;;;;5109897;27;41325;-70
2023/09/27 12:28:04;;;;;;;6.10;5.50;;;;;;;;;;5117038;27;42475;-70
2023/09/27 12:30:32;;;;;;;6.07;5.28;;;;;;;;;;5125802;27;41943;-70
2023/09/27 12:33:00;;;;;;;6.18;5.20;;;;;;;;;;5126251;27;40578;-70
2023/09/27 12:35:28;;;;;;;5.50;5.00;;;;;;;;;;5124704;27;42626;-70
2023/09/27 12:37:56;;;;;;;7.88;4.95;;;;;;;;;;5123615;27;40842;-70
2023/09/27 12:40:25;;;;;;;5.45;4.75;;;;;;;;;;5126105;27;41681;-70
2023/09/27 12:42:54;;;;;;;4.97;4.47;;;;;;;;;;5124455;27;42514;-70
2023/09/27 12:45:22;;;;;;;6.43;4.53;;;;;;;;;;5126071;27;42064;-70
2023/09/27 12:47:50;;;;;;;5.15;4.40;;;;;;;;;;5125106;27;42634;-70
2023/09/27 12:50:23;;;;;;;5.25;4.50;;;;;;;;;;5126090;27;41150;-70
2023/09/27 12:52:52;;;;;;;8.75;4.65;;;;;;;;;;5121680;27;42689;-70
2023/09/27 12:55:20;;;;;;;5.22;4.63;;;;;;;;;;5119020;27;42950;-69
2023/09/27 12:57:49;;;;;;;6.07;4.72;;;;;;;;;;5125003;27;40727;-70
2023/09/27 13:00:19;;;;;;;5.95;4.60;;;;;;;;;;5126609;27;41539;-70
2023/09/27 13:02:47;;;;;;;5.95;4.05;;;;;;;;;;5125324;27;42003;-70
2023/09/27 13:05:15;;;;;;;5.88;4.13;;;;;;;;;;5124376;27;40352;-69
2023/09/27 13:07:43;;;;;;;5.90;4.47;;;;;;;;;;5125883;27;41475;-70
2023/09/27 13:10:11;;;;;;;5.88;4.22;;;;;;;;;;5124729;27;42102;-70
2023/09/27 13:12:39;;;;;;;5.78;4.40;;;;;;;;;;5125092;27;41262;-70
2023/09/27 13:15:11;;;;;;;5.10;4.15;;;;;;;;;;5121739;27;42023;-70
2023/09/27 13:17:40;;;;;;;5.63;3.97;;;;;;;;;;5124818;27;42175;-70
2023/09/27 13:20:10;;;;;;;4.70;4.20;;;;;;;;;;5125066;27;41969;-70
2023/09/27 13:22:38;;;;;;;10.80;4.00;;;;;;;;;;5120879;27;41410;-69
2023/09/27 13:25:07;;;;;;;5.65;4.50;;;;;;;;;;5124841;27;41378;-70
2023/09/27 13:27:35;;;;;;;4.50;3.90;;;;;;;;;;5117470;27;41631;-70
2023/09/27 13:30:04;;;;;;;4.70;3.92;;;;;;;;;;5125437;27;41831;-70
2023/09/27 13:32:31;;;;;;;4.40;3.92;;;;;;;;;;5123636;27;40845;-70
2023/09/27 13:35:01;;;;;;;5.43;4.32;;;;;;;;;;5125888;27;41607;-70
2023/09/27 13:37:29;;;;;;;4.15;3.72;;;;;;;;;;5118712;27;42047;-70
2023/09/27 13:39:59;;;;;;;7.63;4.38;;;;;;;;;;5123042;27;42769;-70
2023/09/27 13:42:27;;;;;;;8.23;4.10;;;;;;;;;;5124277;27;42148;-69
2023/09/27 13:44:55;;;;;;;7.95;5.18;;;;;;;;;;5124797;27;41837;-69
2023/09/27 13:47:24;;;;;;;9.00;4.57;;;;;;;;;;5124393;27;42440;-69
2023/09/27 13:49:52;;;;;;;11.07;5.20;;;;;;;;;;5125093;27;43230;-69
2023/09/27 13:52:21;;;;;;;9.80;6.35;;;;;;;;;;5124593;27;41479;-69
2023/09/27 13:54:49;;;;;;;5.88;5.10;;;;;;;;;;5120479;27;41992;-69
2023/09/27 13:57:17;;;;;;;9.07;5.97;;;;;;;;;;5124765;27;40871;-69
2023/09/27 13:59:45;;;;;;;8.27;6.20;;;;;;;;;;5120024;27;41628;-69
2023/09/27 14:02:14;;;;;;;9.25;6.13;;;;;;;;;;5123613;27;43571;-69
2023/09/27 14:04:43;;;;;;;7.55;5.80;;;;;;;;;;5126163;27;41050;-69
2023/09/27 14:07:11;;;;;;;6.70;5.95;;;;;;;;;;5115037;27;41390;-72
2023/09/27 14:09:40;;;;;;;9.63;5.18;;;;;;;;;;5121773;27;41649;-72
2023/09/27 14:12:08;;;;;;;8.27;6.40;;;;;;;;;;5123883;27;41257;-72
2023/09/27 14:14:36;;;;;;;7.88;6.20;;;;;;;;;;5124451;27;41339;-72
2023/09/27 14:17:04;;;;;;;7.75;5.70;;;;;;;;;;5124331;27;43073;-72
2023/09/27 14:19:32;;;;;;;8.65;5.78;;;;;;;;;;5124836;27;41658;-72
2023/09/27 14:22:01;;;;;;;9.20;7.00;;;;;;;;;;5125399;27;42504;-72
2023/09/27 14:24:31;;;;;;;10.40;6.30;;;;;;;;;;5123218;27;40685;-72
2023/09/27 14:27:00;;;;;;;11.88;6.95;;;;;;;;;;5124504;27;41784;-72
2023/09/27 14:29:28;;;;;;;6.93;5.82;;;;;;;;;;5129708;27;41944;-71
2023/09/27 14:32:04;;;;;;;11.07;6.35;;;;;;;;;;5121922;27;42061;-71
2023/09/27 14:34:33;;;;;;;11.63;6.25;;;;;;;;;;5125626;27;41799;-71
2023/09/27 14:37:08;;;;;;;10.10;7.32;;;;;;;;;;5125920;27;42857;-71
2023/09/27 14:39:36;;;;;;;13.65;8.05;;;;;;;;;;5128072;27;41211;-71
2023/09/27 14:42:06;;;;;;;15.95;7.22;;;;;;;;;;5126830;27;43094;-73
2023/09/27 14:44:34;;;;;;;10.35;6.88;;;;;;;;;;5128429;27;41545;-72
2023/09/27 14:47:02;;;;;;;11.52;7.50;;;;;;;;;;5126825;27;43166;-71
2023/09/27 14:49:30;;;;;;;11.35;6.55;;;;;;;;;;5128054;27;42911;-72